sensor_id;sensor_type;location;lat;lon;timestamp;P1;durP1;ratioP1;P2;durP2;ratioP2
67130;SDS011;54051;53.464;49.532;2023-07-30T00:01:36;8.88;;;4.40;;
67130;SDS011;54051;53.464;49.532;2023-07-30T00:04:03;8.38;;;4.03;;
67130;SDS011;54051;53.464;49.532;2023-07-30T00:06:29;7.88;;;4.20;;
67130;SDS011;54051;53.464;49.532;2023-07-30T00:08:55;7.60;;;4.32;;
67130;SDS011;54051;53.464;49.532;2023-07-30T00:11:21;8.38;;;4.28;;
67130;SDS011;54051;53.464;49.532;2023-07-30T00:13:47;8.32;;;4.22;;
67130;SDS011;54051;53.464;49.532;2023-07-30T00:16:14;7.78;;;4.30;;
67130;SDS011;54051;53.464;49.532;2023-07-30T00:18:40;8.23;;;4.25;;
67130;SDS011;54051;53.464;49.532;2023-07-30T00:21:06;7.40;;;4.10;;
67130;SDS011;54051;53.464;49.532;2023-07-30T00:23:32;7.95;;;4.20;;
67130;SDS011;54051;53.464;49.532;2023-07-30T00:25:58;9.98;;;4.43;;
67130;SDS011;54051;53.464;49.532;2023-07-30T00:28:25;8.25;;;4.32;;
67130;SDS011;54051;53.464;49.532;2023-07-30T00:30:51;10.40;;;4.65;;
67130;SDS011;54051;53.464;49.532;2023-07-30T00:33:17;9.45;;;4.50;;
67130;SDS011;54051;53.464;49.532;2023-07-30T00:35:43;8.80;;;4.20;;
67130;SDS011;54051;53.464;49.532;2023-07-30T00:38:09;7.47;;;4.38;;
67130;SDS011;54051;53.464;49.532;2023-07-30T00:40:39;7.07;;;4.40;;
67130;SDS011;54051;53.464;49.532;2023-07-30T00:43:07;7.47;;;4.05;;
67130;SDS011;54051;53.464;49.532;2023-07-30T00:45:33;8.38;;;4.63;;
67130;SDS011;54051;53.464;49.532;2023-07-30T00:48:00;7.47;;;4.10;;
67130;SDS011;54051;53.464;49.532;2023-07-30T00:50:27;8.43;;;4.20;;
67130;SDS011;54051;53.464;49.532;2023-07-30T00:57:46;8.02;;;4.00;;
67130;SDS011;54051;53.464;49.532;2023-07-30T01:00:13;7.95;;;4.10;;
67130;SDS011;54051;53.464;49.532;2023-07-30T01:02:39;8.20;;;4.35;;
67130;SDS011;54051;53.464;49.532;2023-07-30T01:05:06;7.40;;;4.15;;
67130;SDS011;54051;53.464;49.532;2023-07-30T01:07:32;8.40;;;4.00;;
67130;SDS011;54051;53.464;49.532;2023-07-30T01:09:59;6.88;;;4.00;;
67130;SDS011;54051;53.464;49.532;2023-07-30T01:12:26;8.10;;;4.20;;
67130;SDS011;54051;53.464;49.532;2023-07-30T01:14:55;7.22;;;3.90;;
67130;SDS011;54051;53.464;49.532;2023-07-30T01:17:22;8.23;;;3.85;;
67130;SDS011;54051;53.464;49.532;2023-07-30T01:22:20;9.57;;;4.43;;
67130;SDS011;54051;53.464;49.532;2023-07-30T01:24:47;6.90;;;4.43;;
67130;SDS011;54051;53.464;49.532;2023-07-30T01:29:52;6.43;;;3.85;;
67130;SDS011;54051;53.464;49.532;2023-07-30T01:32:25;7.88;;;4.20;;
67130;SDS011;54051;53.464;49.532;2023-07-30T01:34:54;7.35;;;4.10;;
67130;SDS011;54051;53.464;49.532;2023-07-30T01:37:21;9.65;;;4.10;;
67130;SDS011;54051;53.464;49.532;2023-07-30T01:39:48;7.35;;;3.95;;
67130;SDS011;54051;53.464;49.532;2023-07-30T01:42:15;11.02;;;3.90;;
67130;SDS011;54051;53.464;49.532;2023-07-30T01:44:41;7.63;;;3.60;;
67130;SDS011;54051;53.464;49.532;2023-07-30T01:47:08;7.75;;;3.88;;
67130;SDS011;54051;53.464;49.532;2023-07-30T01:49:34;7.57;;;4.20;;
67130;SDS011;54051;53.464;49.532;2023-07-30T01:52:00;9.35;;;4.20;;
67130;SDS011;54051;53.464;49.532;2023-07-30T01:54:26;7.30;;;3.85;;
67130;SDS011;54051;53.464;49.532;2023-07-30T01:56:53;7.45;;;4.03;;
67130;SDS011;54051;53.464;49.532;2023-07-30T01:59:20;7.60;;;4.00;;
67130;SDS011;54051;53.464;49.532;2023-07-30T02:01:46;8.70;;;4.00;;
67130;SDS011;54051;53.464;49.532;2023-07-30T02:04:12;6.68;;;3.78;;
67130;SDS011;54051;53.464;49.532;2023-07-30T02:06:38;7.72;;;3.75;;
67130;SDS011;54051;53.464;49.532;2023-07-30T02:09:05;7.45;;;3.80;;
67130;SDS011;54051;53.464;49.532;2023-07-30T02:11:31;7.68;;;3.72;;
67130;SDS011;54051;53.464;49.532;2023-07-30T02:13:57;8.13;;;4.10;;
67130;SDS011;54051;53.464;49.532;2023-07-30T02:16:23;5.97;;;3.53;;
67130;SDS011;54051;53.464;49.532;2023-07-30T02:18:50;10.77;;;4.15;;
67130;SDS011;54051;53.464;49.532;2023-07-30T02:21:16;7.22;;;3.60;;
67130;SDS011;54051;53.464;49.532;2023-07-30T02:23:42;9.07;;;3.83;;
67130;SDS011;54051;53.464;49.532;2023-07-30T02:26:08;7.95;;;4.13;;
67130;SDS011;54051;53.464;49.532;2023-07-30T02:28:34;9.35;;;3.88;;
67130;SDS011;54051;53.464;49.532;2023-07-30T02:31:01;8.13;;;3.80;;
67130;SDS011;54051;53.464;49.532;2023-07-30T02:33:27;7.47;;;3.85;;
67130;SDS011;54051;53.464;49.532;2023-07-30T02:35:53;6.55;;;3.50;;
67130;SDS011;54051;53.464;49.532;2023-07-30T02:38:19;6.60;;;3.50;;
67130;SDS011;54051;53.464;49.532;2023-07-30T02:40:45;7.35;;;3.80;;
67130;SDS011;54051;53.464;49.532;2023-07-30T02:43:12;7.93;;;3.40;;
67130;SDS011;54051;53.464;49.532;2023-07-30T02:45:38;7.78;;;3.30;;
67130;SDS011;54051;53.464;49.532;2023-07-30T02:48:04;6.65;;;3.20;;
67130;SDS011;54051;53.464;49.532;2023-07-30T02:50:30;9.40;;;3.60;;
67130;SDS011;54051;53.464;49.532;2023-07-30T02:52:57;7.85;;;3.58;;
67130;SDS011;54051;53.464;49.532;2023-07-30T02:55:23;7.22;;;3.75;;
67130;SDS011;54051;53.464;49.532;2023-07-30T02:57:49;7.00;;;3.22;;
67130;SDS011;54051;53.464;49.532;2023-07-30T03:00:15;7.70;;;3.70;;
67130;SDS011;54051;53.464;49.532;2023-07-30T03:02:42;8.48;;;3.33;;
67130;SDS011;54051;53.464;49.532;2023-07-30T03:07:35;6.05;;;3.20;;
67130;SDS011;54051;53.464;49.532;2023-07-30T03:10:01;9.07;;;3.50;;
67130;SDS011;54051;53.464;49.532;2023-07-30T03:12:27;6.05;;;3.10;;
67130;SDS011;54051;53.464;49.532;2023-07-30T03:17:20;6.97;;;3.50;;
67130;SDS011;54051;53.464;49.532;2023-07-30T03:19:46;7.53;;;3.30;;
67130;SDS011;54051;53.464;49.532;2023-07-30T03:22:12;6.63;;;3.10;;
67130;SDS011;54051;53.464;49.532;2023-07-30T03:24:39;6.72;;;2.90;;
67130;SDS011;54051;53.464;49.532;2023-07-30T03:27:05;4.65;;;2.80;;
67130;SDS011;54051;53.464;49.532;2023-07-30T03:29:32;5.88;;;3.00;;
67130;SDS011;54051;53.464;49.532;2023-07-30T03:31:58;5.85;;;2.90;;
67130;SDS011;54051;53.464;49.532;2023-07-30T03:34:24;5.82;;;2.70;;
67130;SDS011;54051;53.464;49.532;2023-07-30T03:36:50;4.93;;;2.50;;
67130;SDS011;54051;53.464;49.532;2023-07-30T03:39:16;5.38;;;2.85;;
67130;SDS011;54051;53.464;49.532;2023-07-30T03:41:42;6.70;;;2.75;;
67130;SDS011;54051;53.464;49.532;2023-07-30T03:44:09;5.13;;;2.97;;
67130;SDS011;54051;53.464;49.532;2023-07-30T03:46:35;5.15;;;2.80;;
67130;SDS011;54051;53.464;49.532;2023-07-30T03:49:02;6.40;;;2.67;;
67130;SDS011;54051;53.464;49.532;2023-07-30T03:51:29;5.25;;;2.80;;
67130;SDS011;54051;53.464;49.532;2023-07-30T03:53:55;6.38;;;2.92;;
67130;SDS011;54051;53.464;49.532;2023-07-30T03:56:21;5.80;;;3.10;;
67130;SDS011;54051;53.464;49.532;2023-07-30T03:58:47;5.63;;;2.60;;
67130;SDS011;54051;53.464;49.532;2023-07-30T04:01:15;5.47;;;2.88;;
67130;SDS011;54051;53.464;49.532;2023-07-30T04:03:42;5.85;;;2.70;;
67130;SDS011;54051;53.464;49.532;2023-07-30T04:06:08;6.30;;;2.90;;
67130;SDS011;54051;53.464;49.532;2023-07-30T04:08:34;5.05;;;2.90;;
67130;SDS011;54051;53.464;49.532;2023-07-30T04:11:01;5.72;;;2.80;;
67130;SDS011;54051;53.464;49.532;2023-07-30T04:13:27;5.45;;;2.75;;
67130;SDS011;54051;53.464;49.532;2023-07-30T04:15:53;4.38;;;2.70;;
67130;SDS011;54051;53.464;49.532;2023-07-30T04:18:19;4.70;;;2.80;;
67130;SDS011;54051;53.464;49.532;2023-07-30T04:20:45;5.53;;;2.88;;
67130;SDS011;54051;53.464;49.532;2023-07-30T04:23:11;6.20;;;2.83;;
67130;SDS011;54051;53.464;49.532;2023-07-30T04:25:38;6.32;;;3.22;;
67130;SDS011;54051;53.464;49.532;2023-07-30T04:28:04;5.20;;;3.08;;
67130;SDS011;54051;53.464;49.532;2023-07-30T04:30:30;4.55;;;2.67;;
67130;SDS011;54051;53.464;49.532;2023-07-30T04:32:57;5.85;;;3.03;;
67130;SDS011;54051;53.464;49.532;2023-07-30T04:35:23;5.72;;;3.05;;
67130;SDS011;54051;53.464;49.532;2023-07-30T04:37:50;5.45;;;2.88;;
67130;SDS011;54051;53.464;49.532;2023-07-30T04:40:16;4.80;;;2.90;;
67130;SDS011;54051;53.464;49.532;2023-07-30T04:42:42;6.38;;;3.20;;
67130;SDS011;54051;53.464;49.532;2023-07-30T04:45:09;5.97;;;3.03;;
67130;SDS011;54051;53.464;49.532;2023-07-30T04:47:35;5.00;;;3.25;;
67130;SDS011;54051;53.464;49.532;2023-07-30T04:50:01;4.78;;;2.80;;
67130;SDS011;54051;53.464;49.532;2023-07-30T04:52:27;5.13;;;3.30;;
67130;SDS011;54051;53.464;49.532;2023-07-30T04:54:53;5.78;;;3.30;;
67130;SDS011;54051;53.464;49.532;2023-07-30T04:57:19;5.15;;;3.03;;
67130;SDS011;54051;53.464;49.532;2023-07-30T04:59:46;5.65;;;3.10;;
67130;SDS011;54051;53.464;49.532;2023-07-30T05:02:12;6.82;;;3.70;;
67130;SDS011;54051;53.464;49.532;2023-07-30T05:04:38;5.30;;;3.33;;
67130;SDS011;54051;53.464;49.532;2023-07-30T05:07:04;6.18;;;3.58;;
67130;SDS011;54051;53.464;49.532;2023-07-30T05:09:30;6.65;;;3.40;;
67130;SDS011;54051;53.464;49.532;2023-07-30T05:11:57;5.60;;;3.20;;
67130;SDS011;54051;53.464;49.532;2023-07-30T05:14:24;5.40;;;3.42;;
67130;SDS011;54051;53.464;49.532;2023-07-30T05:16:50;6.75;;;3.47;;
67130;SDS011;54051;53.464;49.532;2023-07-30T05:19:16;6.47;;;3.40;;
67130;SDS011;54051;53.464;49.532;2023-07-30T05:21:42;6.45;;;3.38;;
67130;SDS011;54051;53.464;49.532;2023-07-30T05:24:08;4.80;;;3.20;;
67130;SDS011;54051;53.464;49.532;2023-07-30T05:26:34;5.82;;;3.55;;
67130;SDS011;54051;53.464;49.532;2023-07-30T05:29:00;7.53;;;3.40;;
67130;SDS011;54051;53.464;49.532;2023-07-30T05:31:26;6.38;;;3.38;;
67130;SDS011;54051;53.464;49.532;2023-07-30T05:33:52;6.13;;;3.40;;
67130;SDS011;54051;53.464;49.532;2023-07-30T05:36:18;5.75;;;3.55;;
67130;SDS011;54051;53.464;49.532;2023-07-30T05:38:44;7.93;;;3.50;;
67130;SDS011;54051;53.464;49.532;2023-07-30T05:41:10;6.35;;;3.83;;
67130;SDS011;54051;53.464;49.532;2023-07-30T05:43:36;5.43;;;3.50;;
67130;SDS011;54051;53.464;49.532;2023-07-30T05:46:02;5.57;;;3.58;;
67130;SDS011;54051;53.464;49.532;2023-07-30T05:48:28;5.50;;;3.50;;
67130;SDS011;54051;53.464;49.532;2023-07-30T05:50:54;5.75;;;3.53;;
67130;SDS011;54051;53.464;49.532;2023-07-30T05:53:20;5.78;;;3.50;;
67130;SDS011;54051;53.464;49.532;2023-07-30T05:55:46;5.80;;;3.65;;
67130;SDS011;54051;53.464;49.532;2023-07-30T05:58:13;5.28;;;3.60;;
67130;SDS011;54051;53.464;49.532;2023-07-30T06:00:39;5.22;;;3.80;;
67130;SDS011;54051;53.464;49.532;2023-07-30T06:03:05;6.10;;;3.85;;
67130;SDS011;54051;53.464;49.532;2023-07-30T06:05:33;6.28;;;3.80;;
67130;SDS011;54051;53.464;49.532;2023-07-30T06:08:03;5.40;;;3.67;;
67130;SDS011;54051;53.464;49.532;2023-07-30T06:10:29;6.13;;;3.75;;
67130;SDS011;54051;53.464;49.532;2023-07-30T06:12:55;5.63;;;3.80;;
67130;SDS011;54051;53.464;49.532;2023-07-30T06:15:21;5.63;;;3.58;;
67130;SDS011;54051;53.464;49.532;2023-07-30T06:17:47;7.93;;;3.60;;
67130;SDS011;54051;53.464;49.532;2023-07-30T06:20:13;6.45;;;3.40;;
67130;SDS011;54051;53.464;49.532;2023-07-30T06:22:39;5.32;;;3.30;;
67130;SDS011;54051;53.464;49.532;2023-07-30T06:25:05;5.85;;;3.63;;
67130;SDS011;54051;53.464;49.532;2023-07-30T06:27:31;5.00;;;3.50;;
67130;SDS011;54051;53.464;49.532;2023-07-30T06:29:57;7.43;;;4.10;;
67130;SDS011;54051;53.464;49.532;2023-07-30T06:32:23;5.22;;;3.45;;
67130;SDS011;54051;53.464;49.532;2023-07-30T06:34:49;8.75;;;4.00;;
67130;SDS011;54051;53.464;49.532;2023-07-30T06:37:15;6.82;;;3.47;;
67130;SDS011;54051;53.464;49.532;2023-07-30T06:39:42;5.65;;;3.75;;
67130;SDS011;54051;53.464;49.532;2023-07-30T06:42:08;6.35;;;3.60;;
67130;SDS011;54051;53.464;49.532;2023-07-30T06:44:34;6.18;;;3.60;;
67130;SDS011;54051;53.464;49.532;2023-07-30T06:47:00;5.85;;;4.35;;
67130;SDS011;54051;53.464;49.532;2023-07-30T06:49:26;9.05;;;4.10;;
67130;SDS011;54051;53.464;49.532;2023-07-30T06:51:52;6.28;;;3.78;;
67130;SDS011;54051;53.464;49.532;2023-07-30T06:54:18;6.15;;;3.60;;
67130;SDS011;54051;53.464;49.532;2023-07-30T06:56:45;5.40;;;3.80;;
67130;SDS011;54051;53.464;49.532;2023-07-30T06:59:11;5.80;;;3.85;;
67130;SDS011;54051;53.464;49.532;2023-07-30T07:01:37;5.72;;;3.40;;
67130;SDS011;54051;53.464;49.532;2023-07-30T07:04:03;5.53;;;3.17;;
67130;SDS011;54051;53.464;49.532;2023-07-30T07:06:29;6.70;;;3.15;;
67130;SDS011;54051;53.464;49.532;2023-07-30T07:08:55;11.05;;;3.58;;
67130;SDS011;54051;53.464;49.532;2023-07-30T07:11:21;5.25;;;3.33;;
67130;SDS011;54051;53.464;49.532;2023-07-30T07:13:47;5.47;;;3.10;;
67130;SDS011;54051;53.464;49.532;2023-07-30T07:16:13;5.85;;;3.28;;
67130;SDS011;54051;53.464;49.532;2023-07-30T07:18:39;6.07;;;3.80;;
67130;SDS011;54051;53.464;49.532;2023-07-30T07:21:05;5.13;;;3.33;;
67130;SDS011;54051;53.464;49.532;2023-07-30T07:23:31;5.65;;;3.35;;
67130;SDS011;54051;53.464;49.532;2023-07-30T07:25:57;5.28;;;3.30;;
67130;SDS011;54051;53.464;49.532;2023-07-30T07:28:23;5.15;;;3.25;;
67130;SDS011;54051;53.464;49.532;2023-07-30T07:30:49;5.00;;;3.20;;
67130;SDS011;54051;53.464;49.532;2023-07-30T07:33:15;4.85;;;3.40;;
67130;SDS011;54051;53.464;49.532;2023-07-30T07:35:41;5.35;;;3.10;;
67130;SDS011;54051;53.464;49.532;2023-07-30T07:38:07;5.30;;;3.30;;
67130;SDS011;54051;53.464;49.532;2023-07-30T07:40:39;5.10;;;3.13;;
67130;SDS011;54051;53.464;49.532;2023-07-30T07:43:06;5.80;;;3.33;;
67130;SDS011;54051;53.464;49.532;2023-07-30T07:45:35;5.35;;;3.45;;
67130;SDS011;54051;53.464;49.532;2023-07-30T07:48:01;5.22;;;3.45;;
67130;SDS011;54051;53.464;49.532;2023-07-30T07:50:27;5.07;;;3.20;;
67130;SDS011;54051;53.464;49.532;2023-07-30T07:55:19;5.70;;;3.60;;
67130;SDS011;54051;53.464;49.532;2023-07-30T07:57:45;5.38;;;3.40;;
67130;SDS011;54051;53.464;49.532;2023-07-30T08:00:11;5.63;;;3.40;;
67130;SDS011;54051;53.464;49.532;2023-07-30T08:02:37;5.45;;;3.38;;
67130;SDS011;54051;53.464;49.532;2023-07-30T08:05:03;4.85;;;3.15;;
67130;SDS011;54051;53.464;49.532;2023-07-30T08:07:29;5.88;;;3.35;;
67130;SDS011;54051;53.464;49.532;2023-07-30T08:09:55;5.20;;;3.20;;
67130;SDS011;54051;53.464;49.532;2023-07-30T08:12:21;5.70;;;3.63;;
67130;SDS011;54051;53.464;49.532;2023-07-30T08:14:47;6.32;;;3.40;;
67130;SDS011;54051;53.464;49.532;2023-07-30T08:17:13;5.50;;;3.20;;
67130;SDS011;54051;53.464;49.532;2023-07-30T08:19:44;6.35;;;3.50;;
67130;SDS011;54051;53.464;49.532;2023-07-30T08:22:10;5.68;;;3.40;;
67130;SDS011;54051;53.464;49.532;2023-07-30T08:24:35;6.70;;;3.60;;
67130;SDS011;54051;53.464;49.532;2023-07-30T08:29:27;5.60;;;3.20;;
67130;SDS011;54051;53.464;49.532;2023-07-30T08:34:21;5.18;;;3.20;;
67130;SDS011;54051;53.464;49.532;2023-07-30T08:36:48;5.78;;;3.40;;
67130;SDS011;54051;53.464;49.532;2023-07-30T08:39:13;5.10;;;3.40;;
67130;SDS011;54051;53.464;49.532;2023-07-30T08:41:40;7.05;;;3.55;;
67130;SDS011;54051;53.464;49.532;2023-07-30T08:46:32;6.22;;;3.58;;
67130;SDS011;54051;53.464;49.532;2023-07-30T08:51:24;6.20;;;3.50;;
67130;SDS011;54051;53.464;49.532;2023-07-30T08:53:51;6.20;;;3.78;;
67130;SDS011;54051;53.464;49.532;2023-07-30T08:58:44;5.70;;;3.47;;
67130;SDS011;54051;53.464;49.532;2023-07-30T09:01:12;5.88;;;3.50;;
67130;SDS011;54051;53.464;49.532;2023-07-30T09:03:40;5.40;;;3.60;;
67130;SDS011;54051;53.464;49.532;2023-07-30T09:06:06;5.40;;;3.35;;
67130;SDS011;54051;53.464;49.532;2023-07-30T09:08:33;6.95;;;3.72;;
67130;SDS011;54051;53.464;49.532;2023-07-30T09:11:20;5.53;;;3.40;;
67130;SDS011;54051;53.464;49.532;2023-07-30T09:13:46;5.47;;;3.50;;
67130;SDS011;54051;53.464;49.532;2023-07-30T09:16:12;5.55;;;3.42;;
67130;SDS011;54051;53.464;49.532;2023-07-30T09:18:43;4.93;;;3.10;;
67130;SDS011;54051;53.464;49.532;2023-07-30T09:21:14;6.68;;;3.30;;
67130;SDS011;54051;53.464;49.532;2023-07-30T09:23:44;5.47;;;3.17;;
67130;SDS011;54051;53.464;49.532;2023-07-30T09:26:12;5.35;;;2.90;;
67130;SDS011;54051;53.464;49.532;2023-07-30T09:28:42;5.28;;;2.90;;
67130;SDS011;54051;53.464;49.532;2023-07-30T09:31:08;5.22;;;3.15;;
67130;SDS011;54051;53.464;49.532;2023-07-30T09:33:35;5.97;;;3.08;;
67130;SDS011;54051;53.464;49.532;2023-07-30T09:36:07;5.22;;;3.30;;
67130;SDS011;54051;53.464;49.532;2023-07-30T09:38:41;5.65;;;3.35;;
67130;SDS011;54051;53.464;49.532;2023-07-30T09:41:08;5.95;;;2.92;;
67130;SDS011;54051;53.464;49.532;2023-07-30T09:43:36;5.15;;;2.88;;
67130;SDS011;54051;53.464;49.532;2023-07-30T09:46:03;5.30;;;3.10;;
67130;SDS011;54051;53.464;49.532;2023-07-30T09:48:34;5.88;;;2.97;;
67130;SDS011;54051;53.464;49.532;2023-07-30T09:51:03;6.18;;;2.97;;
67130;SDS011;54051;53.464;49.532;2023-07-30T09:53:32;5.10;;;3.10;;
67130;SDS011;54051;53.464;49.532;2023-07-30T09:56:02;5.75;;;3.30;;
67130;SDS011;54051;53.464;49.532;2023-07-30T09:58:29;6.75;;;3.00;;
67130;SDS011;54051;53.464;49.532;2023-07-30T10:00:56;5.60;;;3.25;;
67130;SDS011;54051;53.464;49.532;2023-07-30T10:03:24;4.85;;;2.92;;
67130;SDS011;54051;53.464;49.532;2023-07-30T10:05:51;5.57;;;3.20;;
67130;SDS011;54051;53.464;49.532;2023-07-30T10:08:23;7.57;;;3.60;;
67130;SDS011;54051;53.464;49.532;2023-07-30T10:10:51;5.93;;;3.08;;
67130;SDS011;54051;53.464;49.532;2023-07-30T10:13:19;5.47;;;3.00;;
67130;SDS011;54051;53.464;49.532;2023-07-30T10:15:46;5.40;;;3.20;;
67130;SDS011;54051;53.464;49.532;2023-07-30T10:20:38;5.03;;;3.05;;
67130;SDS011;54051;53.464;49.532;2023-07-30T10:23:05;6.80;;;3.17;;
67130;SDS011;54051;53.464;49.532;2023-07-30T10:30:56;5.90;;;3.30;;
67130;SDS011;54051;53.464;49.532;2023-07-30T10:33:23;5.80;;;3.63;;
67130;SDS011;54051;53.464;49.532;2023-07-30T10:36:08;6.28;;;3.45;;
67130;SDS011;54051;53.464;49.532;2023-07-30T10:38:35;5.85;;;3.30;;
67130;SDS011;54051;53.464;49.532;2023-07-30T10:43:31;7.03;;;3.67;;
67130;SDS011;54051;53.464;49.532;2023-07-30T10:46:00;6.22;;;3.70;;
67130;SDS011;54051;53.464;49.532;2023-07-30T10:48:30;5.35;;;3.30;;
67130;SDS011;54051;53.464;49.532;2023-07-30T10:51:05;5.38;;;3.30;;
67130;SDS011;54051;53.464;49.532;2023-07-30T10:53:32;5.80;;;3.33;;
67130;SDS011;54051;53.464;49.532;2023-07-30T10:58:27;7.07;;;4.10;;
67130;SDS011;54051;53.464;49.532;2023-07-30T11:00:55;6.95;;;3.90;;
67130;SDS011;54051;53.464;49.532;2023-07-30T11:03:25;5.95;;;3.63;;
67130;SDS011;54051;53.464;49.532;2023-07-30T11:05:53;7.65;;;4.72;;
67130;SDS011;54051;53.464;49.532;2023-07-30T11:11:12;6.43;;;3.70;;
67130;SDS011;54051;53.464;49.532;2023-07-30T11:13:47;6.65;;;4.00;;
67130;SDS011;54051;53.464;49.532;2023-07-30T11:16:14;6.80;;;4.10;;
67130;SDS011;54051;53.464;49.532;2023-07-30T11:18:41;5.80;;;3.90;;
67130;SDS011;54051;53.464;49.532;2023-07-30T11:21:11;7.15;;;3.83;;
67130;SDS011;54051;53.464;49.532;2023-07-30T11:23:42;6.10;;;3.90;;
67130;SDS011;54051;53.464;49.532;2023-07-30T11:26:14;8.88;;;4.65;;
67130;SDS011;54051;53.464;49.532;2023-07-30T11:28:42;6.95;;;4.30;;
67130;SDS011;54051;53.464;49.532;2023-07-30T11:31:13;6.85;;;4.00;;
67130;SDS011;54051;53.464;49.532;2023-07-30T11:33:41;7.22;;;4.20;;
67130;SDS011;54051;53.464;49.532;2023-07-30T11:36:10;6.25;;;4.10;;
67130;SDS011;54051;53.464;49.532;2023-07-30T11:38:39;7.78;;;4.60;;
67130;SDS011;54051;53.464;49.532;2023-07-30T11:41:06;6.47;;;4.20;;
67130;SDS011;54051;53.464;49.532;2023-07-30T11:43:38;8.07;;;4.28;;
67130;SDS011;54051;53.464;49.532;2023-07-30T11:48:39;8.60;;;4.40;;
67130;SDS011;54051;53.464;49.532;2023-07-30T11:51:25;7.40;;;4.30;;
67130;SDS011;54051;53.464;49.532;2023-07-30T11:53:54;7.20;;;4.25;;
67130;SDS011;54051;53.464;49.532;2023-07-30T11:56:28;6.05;;;3.92;;
67130;SDS011;54051;53.464;49.532;2023-07-30T12:01:31;7.35;;;3.58;;
67130;SDS011;54051;53.464;49.532;2023-07-30T12:04:00;5.93;;;3.67;;
67130;SDS011;54051;53.464;49.532;2023-07-30T12:06:43;5.80;;;3.58;;
67130;SDS011;54051;53.464;49.532;2023-07-30T12:11:51;5.75;;;3.53;;
67130;SDS011;54051;53.464;49.532;2023-07-30T12:14:22;7.95;;;4.00;;
67130;SDS011;54051;53.464;49.532;2023-07-30T12:17:09;6.63;;;4.00;;
67130;SDS011;54051;53.464;49.532;2023-07-30T12:22:02;8.00;;;4.43;;
67130;SDS011;54051;53.464;49.532;2023-07-30T12:24:28;8.10;;;5.07;;
67130;SDS011;54051;53.464;49.532;2023-07-30T12:26:54;7.72;;;3.92;;
67130;SDS011;54051;53.464;49.532;2023-07-30T12:29:20;6.05;;;3.80;;
67130;SDS011;54051;53.464;49.532;2023-07-30T12:31:46;10.75;;;3.97;;
67130;SDS011;54051;53.464;49.532;2023-07-30T12:34:13;6.82;;;3.50;;
67130;SDS011;54051;53.464;49.532;2023-07-30T12:36:40;6.05;;;3.53;;
67130;SDS011;54051;53.464;49.532;2023-07-30T12:39:06;7.25;;;4.13;;
67130;SDS011;54051;53.464;49.532;2023-07-30T12:41:33;8.02;;;4.68;;
67130;SDS011;54051;53.464;49.532;2023-07-30T12:43:59;6.35;;;3.70;;
67130;SDS011;54051;53.464;49.532;2023-07-30T12:46:25;6.03;;;3.00;;
67130;SDS011;54051;53.464;49.532;2023-07-30T12:48:55;5.28;;;3.03;;
67130;SDS011;54051;53.464;49.532;2023-07-30T12:51:22;5.13;;;2.72;;
67130;SDS011;54051;53.464;49.532;2023-07-30T12:56:13;4.35;;;2.15;;
67130;SDS011;54051;53.464;49.532;2023-07-30T12:58:40;4.95;;;2.40;;
67130;SDS011;54051;53.464;49.532;2023-07-30T13:03:33;5.32;;;2.63;;
67130;SDS011;54051;53.464;49.532;2023-07-30T13:05:58;5.32;;;2.70;;
67130;SDS011;54051;53.464;49.532;2023-07-30T13:08:24;4.82;;;2.45;;
67130;SDS011;54051;53.464;49.532;2023-07-30T13:10:50;4.80;;;2.40;;
67130;SDS011;54051;53.464;49.532;2023-07-30T13:13:16;5.68;;;2.10;;
67130;SDS011;54051;53.464;49.532;2023-07-30T13:15:42;4.70;;;2.10;;
67130;SDS011;54051;53.464;49.532;2023-07-30T13:18:08;5.10;;;2.03;;
67130;SDS011;54051;53.464;49.532;2023-07-30T13:20:35;4.90;;;1.90;;
67130;SDS011;54051;53.464;49.532;2023-07-30T13:23:01;4.68;;;2.13;;
67130;SDS011;54051;53.464;49.532;2023-07-30T13:25:27;4.60;;;1.95;;
67130;SDS011;54051;53.464;49.532;2023-07-30T13:27:54;4.55;;;1.98;;
67130;SDS011;54051;53.464;49.532;2023-07-30T13:30:20;3.85;;;2.05;;
67130;SDS011;54051;53.464;49.532;2023-07-30T13:32:46;5.43;;;2.42;;
67130;SDS011;54051;53.464;49.532;2023-07-30T13:35:12;6.03;;;2.75;;
67130;SDS011;54051;53.464;49.532;2023-07-30T13:37:38;4.40;;;2.58;;
67130;SDS011;54051;53.464;49.532;2023-07-30T13:42:30;5.30;;;2.33;;
67130;SDS011;54051;53.464;49.532;2023-07-30T13:44:56;4.82;;;2.35;;
67130;SDS011;54051;53.464;49.532;2023-07-30T13:47:22;4.65;;;2.40;;
67130;SDS011;54051;53.464;49.532;2023-07-30T13:52:14;5.95;;;3.40;;
67130;SDS011;54051;53.464;49.532;2023-07-30T13:54:40;4.45;;;2.42;;
67130;SDS011;54051;53.464;49.532;2023-07-30T13:57:07;5.10;;;2.85;;
67130;SDS011;54051;53.464;49.532;2023-07-30T13:59:34;5.85;;;3.30;;
67130;SDS011;54051;53.464;49.532;2023-07-30T14:02:00;5.90;;;2.90;;
67130;SDS011;54051;53.464;49.532;2023-07-30T14:04:26;6.75;;;4.50;;
67130;SDS011;54051;53.464;49.532;2023-07-30T14:06:52;6.85;;;3.30;;
67130;SDS011;54051;53.464;49.532;2023-07-30T14:09:18;4.78;;;2.38;;
67130;SDS011;54051;53.464;49.532;2023-07-30T14:11:44;4.15;;;2.42;;
67130;SDS011;54051;53.464;49.532;2023-07-30T14:14:12;4.80;;;2.70;;
67130;SDS011;54051;53.464;49.532;2023-07-30T14:16:38;3.83;;;2.22;;
67130;SDS011;54051;53.464;49.532;2023-07-30T14:19:04;4.03;;;2.10;;
67130;SDS011;54051;53.464;49.532;2023-07-30T14:21:30;5.10;;;2.30;;
67130;SDS011;54051;53.464;49.532;2023-07-30T14:23:56;3.72;;;1.70;;
67130;SDS011;54051;53.464;49.532;2023-07-30T14:26:22;4.28;;;1.80;;
67130;SDS011;54051;53.464;49.532;2023-07-30T14:28:48;4.70;;;2.00;;
67130;SDS011;54051;53.464;49.532;2023-07-30T14:31:14;6.38;;;3.20;;
67130;SDS011;54051;53.464;49.532;2023-07-30T14:33:40;4.50;;;2.08;;
67130;SDS011;54051;53.464;49.532;2023-07-30T14:36:06;6.15;;;3.05;;
67130;SDS011;54051;53.464;49.532;2023-07-30T14:38:32;6.55;;;3.58;;
67130;SDS011;54051;53.464;49.532;2023-07-30T14:41:00;6.20;;;3.65;;
67130;SDS011;54051;53.464;49.532;2023-07-30T14:43:28;7.03;;;3.40;;
67130;SDS011;54051;53.464;49.532;2023-07-30T14:45:54;5.20;;;3.13;;
67130;SDS011;54051;53.464;49.532;2023-07-30T14:48:19;5.20;;;2.95;;
67130;SDS011;54051;53.464;49.532;2023-07-30T14:50:45;7.15;;;2.80;;
67130;SDS011;54051;53.464;49.532;2023-07-30T14:53:12;4.65;;;2.78;;
67130;SDS011;54051;53.464;49.532;2023-07-30T14:55:37;5.28;;;3.00;;
67130;SDS011;54051;53.464;49.532;2023-07-30T14:58:04;4.05;;;2.53;;
67130;SDS011;54051;53.464;49.532;2023-07-30T15:00:30;4.03;;;2.53;;
67130;SDS011;54051;53.464;49.532;2023-07-30T15:07:48;4.50;;;2.75;;
67130;SDS011;54051;53.464;49.532;2023-07-30T15:10:14;6.72;;;3.45;;
67130;SDS011;54051;53.464;49.532;2023-07-30T15:12:42;4.70;;;2.80;;
67130;SDS011;54051;53.464;49.532;2023-07-30T15:15:08;6.57;;;3.05;;
67130;SDS011;54051;53.464;49.532;2023-07-30T15:17:35;5.35;;;3.13;;
67130;SDS011;54051;53.464;49.532;2023-07-30T15:20:01;4.82;;;2.80;;
67130;SDS011;54051;53.464;49.532;2023-07-30T15:22:27;5.95;;;3.28;;
67130;SDS011;54051;53.464;49.532;2023-07-30T15:24:53;6.32;;;3.95;;
67130;SDS011;54051;53.464;49.532;2023-07-30T15:27:20;5.22;;;3.15;;
67130;SDS011;54051;53.464;49.532;2023-07-30T15:29:46;5.68;;;3.50;;
67130;SDS011;54051;53.464;49.532;2023-07-30T15:32:12;8.40;;;3.78;;
67130;SDS011;54051;53.464;49.532;2023-07-30T15:34:38;7.13;;;4.10;;
67130;SDS011;54051;53.464;49.532;2023-07-30T15:37:04;6.63;;;3.50;;
67130;SDS011;54051;53.464;49.532;2023-07-30T15:39:30;9.10;;;3.38;;
67130;SDS011;54051;53.464;49.532;2023-07-30T15:42:00;5.93;;;3.30;;